sensor_id;sensor_type;location;lat;lon;timestamp;P1;durP1;ratioP1;P2;durP2;ratioP2
65936;SDS011;52707;52.086;5.418;2023-05-10T00:02:18;58.65;;;30.00;;
65936;SDS011;52707;52.086;5.418;2023-05-10T00:04:44;52.20;;;30.67;;
65936;SDS011;52707;52.086;5.418;2023-05-10T00:07:11;57.20;;;32.65;;
65936;SDS011;52707;52.086;5.418;2023-05-10T00:09:37;57.00;;;30.70;;
65936;SDS011;52707;52.086;5.418;2023-05-10T00:12:03;57.67;;;32.80;;
65936;SDS011;52707;52.086;5.418;2023-05-10T00:14:30;59.58;;;33.17;;
65936;SDS011;52707;52.086;5.418;2023-05-10T00:16:56;53.88;;;30.90;;
65936;SDS011;52707;52.086;5.418;2023-05-10T00:19:23;62.05;;;33.85;;
65936;SDS011;52707;52.086;5.418;2023-05-10T00:21:49;59.30;;;33.35;;
65936;SDS011;52707;52.086;5.418;2023-05-10T00:24:15;64.50;;;34.13;;
65936;SDS011;52707;52.086;5.418;2023-05-10T00:26:42;67.85;;;34.13;;
65936;SDS011;52707;52.086;5.418;2023-05-10T00:29:08;65.30;;;34.33;;
65936;SDS011;52707;52.086;5.418;2023-05-10T00:31:34;68.43;;;36.28;;
65936;SDS011;52707;52.086;5.418;2023-05-10T00:34:01;65.95;;;33.95;;
65936;SDS011;52707;52.086;5.418;2023-05-10T00:36:27;66.97;;;34.20;;
65936;SDS011;52707;52.086;5.418;2023-05-10T00:38:53;66.78;;;34.85;;
65936;SDS011;52707;52.086;5.418;2023-05-10T00:41:20;79.60;;;36.63;;
65936;SDS011;52707;52.086;5.418;2023-05-10T00:43:47;67.63;;;36.20;;
65936;SDS011;52707;52.086;5.418;2023-05-10T00:46:14;73.90;;;37.38;;
65936;SDS011;52707;52.086;5.418;2023-05-10T00:48:41;74.07;;;37.28;;
65936;SDS011;52707;52.086;5.418;2023-05-10T00:51:08;73.63;;;36.40;;
65936;SDS011;52707;52.086;5.418;2023-05-10T00:53:34;70.22;;;36.78;;
65936;SDS011;52707;52.086;5.418;2023-05-10T00:56:01;73.00;;;35.70;;
65936;SDS011;52707;52.086;5.418;2023-05-10T00:58:29;80.20;;;37.90;;
65936;SDS011;52707;52.086;5.418;2023-05-10T01:00:57;79.05;;;37.40;;
65936;SDS011;52707;52.086;5.418;2023-05-10T01:03:24;72.20;;;35.60;;
65936;SDS011;52707;52.086;5.418;2023-05-10T01:05:51;80.13;;;36.80;;
65936;SDS011;52707;52.086;5.418;2023-05-10T01:08:17;69.47;;;34.92;;
65936;SDS011;52707;52.086;5.418;2023-05-10T01:10:44;76.38;;;35.85;;
65936;SDS011;52707;52.086;5.418;2023-05-10T01:13:11;68.63;;;34.80;;
65936;SDS011;52707;52.086;5.418;2023-05-10T01:15:38;76.68;;;36.10;;
65936;SDS011;52707;52.086;5.418;2023-05-10T01:18:05;65.80;;;33.70;;
65936;SDS011;52707;52.086;5.418;2023-05-10T01:20:33;70.10;;;34.83;;
65936;SDS011;52707;52.086;5.418;2023-05-10T01:33:18;68.68;;;35.05;;
65936;SDS011;52707;52.086;5.418;2023-05-10T01:35:51;67.57;;;33.47;;
65936;SDS011;52707;52.086;5.418;2023-05-10T01:38:29;76.15;;;34.90;;
65936;SDS011;52707;52.086;5.418;2023-05-10T01:43:26;92.22;;;37.42;;
65936;SDS011;52707;52.086;5.418;2023-05-10T01:46:10;74.38;;;35.58;;
65936;SDS011;52707;52.086;5.418;2023-05-10T01:48:40;73.97;;;34.20;;
65936;SDS011;52707;52.086;5.418;2023-05-10T01:51:13;76.13;;;34.58;;
65936;SDS011;52707;52.086;5.418;2023-05-10T01:53:40;80.03;;;35.80;;
65936;SDS011;52707;52.086;5.418;2023-05-10T01:56:07;77.88;;;35.65;;
65936;SDS011;52707;52.086;5.418;2023-05-10T01:58:34;81.65;;;36.17;;
65936;SDS011;52707;52.086;5.418;2023-05-10T02:01:03;75.38;;;34.92;;
65936;SDS011;52707;52.086;5.418;2023-05-10T02:03:29;81.85;;;36.28;;
65936;SDS011;52707;52.086;5.418;2023-05-10T02:05:57;73.95;;;34.90;;
65936;SDS011;52707;52.086;5.418;2023-05-10T02:08:23;78.75;;;36.92;;
65936;SDS011;52707;52.086;5.418;2023-05-10T02:10:51;79.75;;;36.83;;
65936;SDS011;52707;52.086;5.418;2023-05-10T02:13:18;80.25;;;38.38;;
65936;SDS011;52707;52.086;5.418;2023-05-10T02:15:46;73.07;;;35.88;;
65936;SDS011;52707;52.086;5.418;2023-05-10T02:18:14;79.05;;;35.63;;
65936;SDS011;52707;52.086;5.418;2023-05-10T02:20:42;79.75;;;36.28;;
65936;SDS011;52707;52.086;5.418;2023-05-10T02:23:09;82.15;;;37.55;;
65936;SDS011;52707;52.086;5.418;2023-05-10T02:25:35;83.35;;;37.08;;
65936;SDS011;52707;52.086;5.418;2023-05-10T02:28:03;83.28;;;37.22;;
65936;SDS011;52707;52.086;5.418;2023-05-10T02:30:31;82.85;;;36.55;;
65936;SDS011;52707;52.086;5.418;2023-05-10T02:32:58;81.30;;;37.35;;
65936;SDS011;52707;52.086;5.418;2023-05-10T02:35:25;73.15;;;35.72;;
65936;SDS011;52707;52.086;5.418;2023-05-10T02:37:52;84.72;;;38.17;;
65936;SDS011;52707;52.086;5.418;2023-05-10T02:40:19;86.22;;;39.40;;
65936;SDS011;52707;52.086;5.418;2023-05-10T02:42:45;82.55;;;36.72;;
65936;SDS011;52707;52.086;5.418;2023-05-10T02:45:14;83.43;;;37.63;;
65936;SDS011;52707;52.086;5.418;2023-05-10T02:47:40;84.63;;;39.70;;
65936;SDS011;52707;52.086;5.418;2023-05-10T02:50:07;82.97;;;37.15;;
65936;SDS011;52707;52.086;5.418;2023-05-10T02:52:36;84.60;;;39.20;;
65936;SDS011;52707;52.086;5.418;2023-05-10T02:55:05;96.78;;;41.95;;
65936;SDS011;52707;52.086;5.418;2023-05-10T02:57:32;104.90;;;42.83;;
65936;SDS011;52707;52.086;5.418;2023-05-10T02:59:59;107.68;;;45.35;;
65936;SDS011;52707;52.086;5.418;2023-05-10T03:02:26;102.97;;;46.58;;
65936;SDS011;52707;52.086;5.418;2023-05-10T03:04:52;110.78;;;47.22;;
65936;SDS011;52707;52.086;5.418;2023-05-10T03:07:19;115.05;;;47.28;;
65936;SDS011;52707;52.086;5.418;2023-05-10T03:09:47;112.03;;;47.45;;
65936;SDS011;52707;52.086;5.418;2023-05-10T03:14:56;122.10;;;49.13;;
65936;SDS011;52707;52.086;5.418;2023-05-10T03:17:36;125.30;;;48.55;;
65936;SDS011;52707;52.086;5.418;2023-05-10T03:20:09;119.40;;;48.53;;
65936;SDS011;52707;52.086;5.418;2023-05-10T03:22:38;125.30;;;49.97;;
65936;SDS011;52707;52.086;5.418;2023-05-10T03:25:07;125.38;;;48.97;;
65936;SDS011;52707;52.086;5.418;2023-05-10T03:27:36;128.15;;;47.47;;
65936;SDS011;52707;52.086;5.418;2023-05-10T03:30:05;124.00;;;49.00;;
65936;SDS011;52707;52.086;5.418;2023-05-10T03:32:32;120.80;;;47.88;;
65936;SDS011;52707;52.086;5.418;2023-05-10T03:35:00;111.53;;;44.38;;
65936;SDS011;52707;52.086;5.418;2023-05-10T03:37:27;112.80;;;44.92;;
65936;SDS011;52707;52.086;5.418;2023-05-10T03:39:53;98.60;;;41.83;;
65936;SDS011;52707;52.086;5.418;2023-05-10T03:42:20;95.03;;;40.97;;
65936;SDS011;52707;52.086;5.418;2023-05-10T03:44:46;95.75;;;41.13;;
65936;SDS011;52707;52.086;5.418;2023-05-10T03:47:15;108.25;;;44.25;;
65936;SDS011;52707;52.086;5.418;2023-05-10T03:49:41;110.22;;;42.17;;
65936;SDS011;52707;52.086;5.418;2023-05-10T03:52:07;104.07;;;43.15;;
65936;SDS011;52707;52.086;5.418;2023-05-10T03:54:33;97.95;;;39.80;;
65936;SDS011;52707;52.086;5.418;2023-05-10T03:57:00;94.35;;;40.33;;
65936;SDS011;52707;52.086;5.418;2023-05-10T03:59:26;107.00;;;42.33;;
65936;SDS011;52707;52.086;5.418;2023-05-10T04:01:53;110.75;;;41.40;;
65936;SDS011;52707;52.086;5.418;2023-05-10T04:04:19;98.63;;;39.42;;
65936;SDS011;52707;52.086;5.418;2023-05-10T04:06:47;91.40;;;38.78;;
65936;SDS011;52707;52.086;5.418;2023-05-10T04:09:13;101.68;;;40.33;;
65936;SDS011;52707;52.086;5.418;2023-05-10T04:11:40;93.45;;;38.08;;
65936;SDS011;52707;52.086;5.418;2023-05-10T04:14:06;97.97;;;37.40;;
65936;SDS011;52707;52.086;5.418;2023-05-10T04:16:32;96.18;;;38.67;;
65936;SDS011;52707;52.086;5.418;2023-05-10T04:18:59;100.90;;;40.08;;
65936;SDS011;52707;52.086;5.418;2023-05-10T04:21:25;94.05;;;37.50;;
65936;SDS011;52707;52.086;5.418;2023-05-10T04:23:52;96.18;;;37.55;;
65936;SDS011;52707;52.086;5.418;2023-05-10T04:26:18;100.90;;;38.20;;
65936;SDS011;52707;52.086;5.418;2023-05-10T04:28:44;103.03;;;38.97;;
65936;SDS011;52707;52.086;5.418;2023-05-10T04:31:11;99.68;;;39.13;;
65936;SDS011;52707;52.086;5.418;2023-05-10T04:33:37;101.15;;;40.38;;
65936;SDS011;52707;52.086;5.418;2023-05-10T04:36:03;102.28;;;40.45;;
65936;SDS011;52707;52.086;5.418;2023-05-10T04:38:30;102.75;;;41.08;;
65936;SDS011;52707;52.086;5.418;2023-05-10T04:41:06;97.75;;;38.95;;
65936;SDS011;52707;52.086;5.418;2023-05-10T04:43:33;98.30;;;38.65;;
65936;SDS011;52707;52.086;5.418;2023-05-10T04:45:59;111.68;;;40.25;;
65936;SDS011;52707;52.086;5.418;2023-05-10T04:48:26;105.65;;;41.88;;
65936;SDS011;52707;52.086;5.418;2023-05-10T04:50:52;117.25;;;40.20;;
65936;SDS011;52707;52.086;5.418;2023-05-10T04:53:18;114.90;;;42.25;;
65936;SDS011;52707;52.086;5.418;2023-05-10T04:55:45;117.88;;;43.97;;
65936;SDS011;52707;52.086;5.418;2023-05-10T04:58:12;110.50;;;42.00;;
65936;SDS011;52707;52.086;5.418;2023-05-10T05:00:38;110.43;;;42.15;;
65936;SDS011;52707;52.086;5.418;2023-05-10T05:03:05;110.75;;;41.40;;
65936;SDS011;52707;52.086;5.418;2023-05-10T05:05:32;106.40;;;40.95;;
65936;SDS011;52707;52.086;5.418;2023-05-10T05:07:58;105.20;;;43.00;;
65936;SDS011;52707;52.086;5.418;2023-05-10T05:10:24;107.18;;;41.60;;
65936;SDS011;52707;52.086;5.418;2023-05-10T05:12:51;98.35;;;39.72;;
65936;SDS011;52707;52.086;5.418;2023-05-10T05:15:17;101.80;;;42.35;;
65936;SDS011;52707;52.086;5.418;2023-05-10T05:17:43;109.38;;;40.10;;
65936;SDS011;52707;52.086;5.418;2023-05-10T05:20:10;113.78;;;41.53;;
65936;SDS011;52707;52.086;5.418;2023-05-10T05:22:37;111.22;;;42.78;;
65936;SDS011;52707;52.086;5.418;2023-05-10T05:25:03;117.85;;;43.17;;
65936;SDS011;52707;52.086;5.418;2023-05-10T05:27:30;125.32;;;45.65;;
65936;SDS011;52707;52.086;5.418;2023-05-10T05:29:57;124.95;;;45.35;;
65936;SDS011;52707;52.086;5.418;2023-05-10T05:32:24;118.88;;;44.72;;
65936;SDS011;52707;52.086;5.418;2023-05-10T05:34:50;119.32;;;46.55;;
65936;SDS011;52707;52.086;5.418;2023-05-10T05:37:17;117.90;;;44.20;;
65936;SDS011;52707;52.086;5.418;2023-05-10T05:39:44;112.35;;;44.08;;
65936;SDS011;52707;52.086;5.418;2023-05-10T05:42:11;121.57;;;45.17;;
65936;SDS011;52707;52.086;5.418;2023-05-10T05:44:38;120.70;;;45.25;;
65936;SDS011;52707;52.086;5.418;2023-05-10T05:47:04;120.85;;;46.90;;
65936;SDS011;52707;52.086;5.418;2023-05-10T05:49:30;122.80;;;46.90;;
65936;SDS011;52707;52.086;5.418;2023-05-10T05:52:00;131.80;;;48.92;;
65936;SDS011;52707;52.086;5.418;2023-05-10T05:54:27;138.83;;;46.47;;
65936;SDS011;52707;52.086;5.418;2023-05-10T05:56:54;111.43;;;43.75;;
65936;SDS011;52707;52.086;5.418;2023-05-10T05:59:20;124.30;;;46.40;;
65936;SDS011;52707;52.086;5.418;2023-05-10T06:01:47;107.85;;;43.00;;
65936;SDS011;52707;52.086;5.418;2023-05-10T06:04:13;111.18;;;43.83;;
65936;SDS011;52707;52.086;5.418;2023-05-10T06:06:39;109.45;;;43.10;;
65936;SDS011;52707;52.086;5.418;2023-05-10T06:09:06;92.07;;;41.05;;
65936;SDS011;52707;52.086;5.418;2023-05-10T06:11:32;94.93;;;39.92;;
65936;SDS011;52707;52.086;5.418;2023-05-10T06:13:59;102.07;;;41.85;;
65936;SDS011;52707;52.086;5.418;2023-05-10T06:16:25;91.10;;;38.50;;
65936;SDS011;52707;52.086;5.418;2023-05-10T06:18:51;88.22;;;38.90;;
65936;SDS011;52707;52.086;5.418;2023-05-10T06:21:17;86.75;;;37.13;;
65936;SDS011;52707;52.086;5.418;2023-05-10T06:23:44;80.70;;;36.17;;
65936;SDS011;52707;52.086;5.418;2023-05-10T06:26:10;74.10;;;34.97;;
65936;SDS011;52707;52.086;5.418;2023-05-10T06:28:36;77.60;;;35.35;;
65936;SDS011;52707;52.086;5.418;2023-05-10T06:31:06;86.88;;;36.70;;
65936;SDS011;52707;52.086;5.418;2023-05-10T06:33:33;83.88;;;37.30;;
65936;SDS011;52707;52.086;5.418;2023-05-10T06:35:59;97.75;;;38.47;;
65936;SDS011;52707;52.086;5.418;2023-05-10T06:38:25;81.72;;;36.40;;
65936;SDS011;52707;52.086;5.418;2023-05-10T06:40:52;82.80;;;35.25;;
65936;SDS011;52707;52.086;5.418;2023-05-10T06:43:18;89.78;;;37.03;;
65936;SDS011;52707;52.086;5.418;2023-05-10T06:45:45;93.53;;;36.25;;
65936;SDS011;52707;52.086;5.418;2023-05-10T06:48:11;81.80;;;32.78;;
65936;SDS011;52707;52.086;5.418;2023-05-10T06:50:37;80.28;;;34.13;;
65936;SDS011;52707;52.086;5.418;2023-05-10T06:53:04;87.82;;;34.90;;
65936;SDS011;52707;52.086;5.418;2023-05-10T06:55:30;73.70;;;30.45;;
65936;SDS011;52707;52.086;5.418;2023-05-10T06:57:56;59.45;;;27.48;;
65936;SDS011;52707;52.086;5.418;2023-05-10T07:00:22;54.35;;;26.42;;
65936;SDS011;52707;52.086;5.418;2023-05-10T07:02:49;48.35;;;24.00;;
65936;SDS011;52707;52.086;5.418;2023-05-10T07:05:15;45.72;;;22.77;;
65936;SDS011;52707;52.086;5.418;2023-05-10T07:07:42;48.40;;;21.77;;
65936;SDS011;52707;52.086;5.418;2023-05-10T07:10:09;46.10;;;20.77;;
65936;SDS011;52707;52.086;5.418;2023-05-10T07:12:35;33.00;;;16.77;;
65936;SDS011;52707;52.086;5.418;2023-05-10T07:15:01;29.15;;;15.18;;
65936;SDS011;52707;52.086;5.418;2023-05-10T07:17:28;29.52;;;14.48;;
65936;SDS011;52707;52.086;5.418;2023-05-10T07:19:54;22.95;;;13.52;;
65936;SDS011;52707;52.086;5.418;2023-05-10T07:22:20;29.80;;;14.55;;
65936;SDS011;52707;52.086;5.418;2023-05-10T07:24:47;23.65;;;12.75;;
65936;SDS011;52707;52.086;5.418;2023-05-10T07:27:13;33.92;;;13.70;;
65936;SDS011;52707;52.086;5.418;2023-05-10T07:29:39;20.52;;;12.00;;
65936;SDS011;52707;52.086;5.418;2023-05-10T07:32:06;22.52;;;11.88;;
65936;SDS011;52707;52.086;5.418;2023-05-10T07:34:32;19.38;;;11.30;;
65936;SDS011;52707;52.086;5.418;2023-05-10T07:36:58;21.88;;;11.75;;
65936;SDS011;52707;52.086;5.418;2023-05-10T07:39:25;16.98;;;10.55;;
65936;SDS011;52707;52.086;5.418;2023-05-10T07:41:53;20.75;;;11.57;;
65936;SDS011;52707;52.086;5.418;2023-05-10T07:44:20;20.33;;;11.00;;
65936;SDS011;52707;52.086;5.418;2023-05-10T07:46:46;22.95;;;11.93;;
65936;SDS011;52707;52.086;5.418;2023-05-10T07:49:13;19.88;;;12.10;;
65936;SDS011;52707;52.086;5.418;2023-05-10T07:51:40;21.13;;;11.98;;
65936;SDS011;52707;52.086;5.418;2023-05-10T07:54:06;20.33;;;11.55;;
65936;SDS011;52707;52.086;5.418;2023-05-10T07:56:32;18.77;;;11.90;;
65936;SDS011;52707;52.086;5.418;2023-05-10T07:58:59;19.48;;;11.57;;
65936;SDS011;52707;52.086;5.418;2023-05-10T08:01:26;21.95;;;12.13;;
65936;SDS011;52707;52.086;5.418;2023-05-10T08:03:53;19.35;;;10.88;;
65936;SDS011;52707;52.086;5.418;2023-05-10T08:06:20;20.02;;;11.75;;
65936;SDS011;52707;52.086;5.418;2023-05-10T08:08:47;22.00;;;12.07;;
65936;SDS011;52707;52.086;5.418;2023-05-10T08:11:18;25.30;;;11.90;;
65936;SDS011;52707;52.086;5.418;2023-05-10T08:13:44;21.83;;;12.30;;
65936;SDS011;52707;52.086;5.418;2023-05-10T08:16:11;24.73;;;12.43;;
65936;SDS011;52707;52.086;5.418;2023-05-10T08:18:38;22.05;;;13.13;;
65936;SDS011;52707;52.086;5.418;2023-05-10T08:21:04;19.70;;;11.27;;
65936;SDS011;52707;52.086;5.418;2023-05-10T08:23:31;21.58;;;12.13;;
65936;SDS011;52707;52.086;5.418;2023-05-10T08:25:57;20.08;;;11.70;;
65936;SDS011;52707;52.086;5.418;2023-05-10T08:28:23;20.83;;;12.23;;
65936;SDS011;52707;52.086;5.418;2023-05-10T08:30:50;22.35;;;11.63;;
65936;SDS011;52707;52.086;5.418;2023-05-10T08:33:19;24.15;;;12.13;;
65936;SDS011;52707;52.086;5.418;2023-05-10T08:35:46;26.40;;;11.30;;
65936;SDS011;52707;52.086;5.418;2023-05-10T08:38:12;17.70;;;11.27;;
65936;SDS011;52707;52.086;5.418;2023-05-10T08:40:42;21.00;;;11.50;;
65936;SDS011;52707;52.086;5.418;2023-05-10T08:43:10;19.37;;;11.00;;
65936;SDS011;52707;52.086;5.418;2023-05-10T08:45:37;23.27;;;10.77;;
65936;SDS011;52707;52.086;5.418;2023-05-10T08:48:04;18.42;;;11.35;;
65936;SDS011;52707;52.086;5.418;2023-05-10T08:50:31;24.23;;;13.15;;
65936;SDS011;52707;52.086;5.418;2023-05-10T08:52:59;19.52;;;11.95;;
65936;SDS011;52707;52.086;5.418;2023-05-10T08:55:26;20.27;;;12.70;;
65936;SDS011;52707;52.086;5.418;2023-05-10T08:57:53;25.77;;;13.65;;
65936;SDS011;52707;52.086;5.418;2023-05-10T09:00:19;22.10;;;12.02;;
65936;SDS011;52707;52.086;5.418;2023-05-10T09:02:46;26.15;;;13.45;;
65936;SDS011;52707;52.086;5.418;2023-05-10T09:05:14;36.42;;;13.13;;
65936;SDS011;52707;52.086;5.418;2023-05-10T09:07:42;20.75;;;12.52;;
65936;SDS011;52707;52.086;5.418;2023-05-10T09:10:08;22.88;;;12.80;;
65936;SDS011;52707;52.086;5.418;2023-05-10T09:12:35;17.25;;;11.93;;
65936;SDS011;52707;52.086;5.418;2023-05-10T09:15:02;22.63;;;12.35;;
65936;SDS011;52707;52.086;5.418;2023-05-10T09:17:29;15.88;;;11.23;;
65936;SDS011;52707;52.086;5.418;2023-05-10T09:19:59;19.67;;;11.23;;
65936;SDS011;52707;52.086;5.418;2023-05-10T09:22:26;16.58;;;9.93;;
65936;SDS011;52707;52.086;5.418;2023-05-10T09:27:31;14.55;;;9.18;;
65936;SDS011;52707;52.086;5.418;2023-05-10T09:29:57;11.32;;;8.13;;
65936;SDS011;52707;52.086;5.418;2023-05-10T09:32:39;12.07;;;7.03;;
65936;SDS011;52707;52.086;5.418;2023-05-10T09:35:07;11.73;;;6.78;;
65936;SDS011;52707;52.086;5.418;2023-05-10T09:37:34;9.07;;;5.65;;
65936;SDS011;52707;52.086;5.418;2023-05-10T09:40:00;9.80;;;6.20;;
65936;SDS011;52707;52.086;5.418;2023-05-10T09:42:27;10.55;;;5.63;;
65936;SDS011;52707;52.086;5.418;2023-05-10T09:44:53;8.65;;;5.53;;
65936;SDS011;52707;52.086;5.418;2023-05-10T09:47:20;8.68;;;5.28;;
65936;SDS011;52707;52.086;5.418;2023-05-10T09:49:49;10.20;;;5.88;;
65936;SDS011;52707;52.086;5.418;2023-05-10T09:54:52;8.05;;;5.57;;
65936;SDS011;52707;52.086;5.418;2023-05-10T09:57:20;12.82;;;7.03;;
65936;SDS011;52707;52.086;5.418;2023-05-10T09:59:47;10.57;;;6.78;;
65936;SDS011;52707;52.086;5.418;2023-05-10T10:02:13;11.38;;;7.18;;
65936;SDS011;52707;52.086;5.418;2023-05-10T10:04:40;10.65;;;6.63;;
65936;SDS011;52707;52.086;5.418;2023-05-10T10:07:07;12.80;;;6.38;;
65936;SDS011;52707;52.086;5.418;2023-05-10T10:09:34;7.90;;;5.90;;
65936;SDS011;52707;52.086;5.418;2023-05-10T10:12:01;6.80;;;4.95;;
65936;SDS011;52707;52.086;5.418;2023-05-10T10:14:30;12.00;;;5.25;;
65936;SDS011;52707;52.086;5.418;2023-05-10T10:16:57;10.13;;;4.95;;
65936;SDS011;52707;52.086;5.418;2023-05-10T10:19:33;12.38;;;6.07;;
65936;SDS011;52707;52.086;5.418;2023-05-10T10:21:59;12.38;;;6.38;;
65936;SDS011;52707;52.086;5.418;2023-05-10T10:24:26;11.63;;;5.45;;
65936;SDS011;52707;52.086;5.418;2023-05-10T10:26:52;9.95;;;6.07;;
65936;SDS011;52707;52.086;5.418;2023-05-10T10:29:41;11.38;;;6.88;;
65936;SDS011;52707;52.086;5.418;2023-05-10T10:34:46;8.15;;;6.47;;
65936;SDS011;52707;52.086;5.418;2023-05-10T10:37:13;15.43;;;7.45;;
65936;SDS011;52707;52.086;5.418;2023-05-10T10:39:39;10.95;;;7.03;;
65936;SDS011;52707;52.086;5.418;2023-05-10T10:42:06;11.68;;;6.32;;
65936;SDS011;52707;52.086;5.418;2023-05-10T10:50:06;11.68;;;7.40;;
65936;SDS011;52707;52.086;5.418;2023-05-10T10:52:34;11.27;;;7.57;;
65936;SDS011;52707;52.086;5.418;2023-05-10T10:55:17;14.38;;;7.05;;
65936;SDS011;52707;52.086;5.418;2023-05-10T10:57:51;8.93;;;6.65;;
65936;SDS011;52707;52.086;5.418;2023-05-10T11:07:59;9.40;;;6.70;;
65936;SDS011;52707;52.086;5.418;2023-05-10T11:10:26;13.10;;;6.35;;
65936;SDS011;52707;52.086;5.418;2023-05-10T11:15:20;10.00;;;6.18;;
65936;SDS011;52707;52.086;5.418;2023-05-10T11:17:54;12.07;;;6.15;;
65936;SDS011;52707;52.086;5.418;2023-05-10T11:20:22;12.43;;;5.90;;
65936;SDS011;52707;52.086;5.418;2023-05-10T11:25:18;10.13;;;5.70;;
65936;SDS011;52707;52.086;5.418;2023-05-10T11:27:47;8.40;;;5.53;;
65936;SDS011;52707;52.086;5.418;2023-05-10T11:30:14;7.50;;;5.75;;
65936;SDS011;52707;52.086;5.418;2023-05-10T11:32:41;12.05;;;5.40;;
65936;SDS011;52707;52.086;5.418;2023-05-10T11:35:08;8.40;;;5.90;;
65936;SDS011;52707;52.086;5.418;2023-05-10T11:37:34;8.60;;;5.35;;
65936;SDS011;52707;52.086;5.418;2023-05-10T11:40:01;6.82;;;5.20;;
65936;SDS011;52707;52.086;5.418;2023-05-10T11:42:28;7.63;;;5.60;;
65936;SDS011;52707;52.086;5.418;2023-05-10T11:44:55;10.65;;;5.35;;
65936;SDS011;52707;52.086;5.418;2023-05-10T11:47:21;8.80;;;5.63;;
65936;SDS011;52707;52.086;5.418;2023-05-10T11:49:48;7.82;;;4.82;;
65936;SDS011;52707;52.086;5.418;2023-05-10T11:52:14;9.38;;;4.80;;
65936;SDS011;52707;52.086;5.418;2023-05-10T11:54:53;7.72;;;4.72;;
65936;SDS011;52707;52.086;5.418;2023-05-10T11:57:20;8.98;;;4.25;;
65936;SDS011;52707;52.086;5.418;2023-05-10T11:59:47;6.30;;;4.47;;
65936;SDS011;52707;52.086;5.418;2023-05-10T12:02:13;5.00;;;3.83;;
65936;SDS011;52707;52.086;5.418;2023-05-10T12:04:40;7.13;;;4.40;;
65936;SDS011;52707;52.086;5.418;2023-05-10T12:07:07;6.97;;;4.13;;
65936;SDS011;52707;52.086;5.418;2023-05-10T12:09:33;5.50;;;3.63;;
65936;SDS011;52707;52.086;5.418;2023-05-10T12:12:09;6.80;;;3.42;;
65936;SDS011;52707;52.086;5.418;2023-05-10T12:14:36;9.48;;;3.97;;
65936;SDS011;52707;52.086;5.418;2023-05-10T12:17:02;9.75;;;3.30;;
65936;SDS011;52707;52.086;5.418;2023-05-10T12:19:36;5.03;;;3.05;;
65936;SDS011;52707;52.086;5.418;2023-05-10T12:22:04;10.38;;;3.17;;
65936;SDS011;52707;52.086;5.418;2023-05-10T12:24:33;4.75;;;2.97;;
65936;SDS011;52707;52.086;5.418;2023-05-10T12:26:59;5.25;;;3.45;;
65936;SDS011;52707;52.086;5.418;2023-05-10T12:29:26;5.85;;;3.08;;
65936;SDS011;52707;52.086;5.418;2023-05-10T12:31:56;6.15;;;3.70;;
65936;SDS011;52707;52.086;5.418;2023-05-10T12:36:52;3.97;;;3.25;;
65936;SDS011;52707;52.086;5.418;2023-05-10T12:39:18;5.28;;;3.35;;
65936;SDS011;52707;52.086;5.418;2023-05-10T12:41:45;4.30;;;2.85;;
65936;SDS011;52707;52.086;5.418;2023-05-10T12:44:11;5.65;;;3.33;;
65936;SDS011;52707;52.086;5.418;2023-05-10T12:46:38;5.47;;;2.90;;
65936;SDS011;52707;52.086;5.418;2023-05-10T12:49:04;5.40;;;3.10;;
65936;SDS011;52707;52.086;5.418;2023-05-10T12:54:01;7.60;;;3.00;;
65936;SDS011;52707;52.086;5.418;2023-05-10T12:56:28;5.28;;;3.35;;
65936;SDS011;52707;52.086;5.418;2023-05-10T12:58:54;3.58;;;2.65;;
65936;SDS011;52707;52.086;5.418;2023-05-10T13:01:21;3.85;;;3.00;;
65936;SDS011;52707;52.086;5.418;2023-05-10T13:03:47;7.47;;;4.65;;
65936;SDS011;52707;52.086;5.418;2023-05-10T13:06:13;8.85;;;4.72;;
65936;SDS011;52707;52.086;5.418;2023-05-10T13:08:40;5.68;;;4.72;;
65936;SDS011;52707;52.086;5.418;2023-05-10T13:11:06;8.85;;;5.30;;
65936;SDS011;52707;52.086;5.418;2023-05-10T13:13:33;6.03;;;5.20;;
65936;SDS011;52707;52.086;5.418;2023-05-10T13:15:59;5.80;;;4.80;;
65936;SDS011;52707;52.086;5.418;2023-05-10T13:18:25;7.13;;;5.50;;
65936;SDS011;52707;52.086;5.418;2023-05-10T13:20:53;7.43;;;5.85;;
65936;SDS011;52707;52.086;5.418;2023-05-10T13:23:19;7.40;;;6.10;;
65936;SDS011;52707;52.086;5.418;2023-05-10T13:25:46;7.85;;;5.43;;
65936;SDS011;52707;52.086;5.418;2023-05-10T13:28:12;10.05;;;5.30;;
65936;SDS011;52707;52.086;5.418;2023-05-10T13:30:38;12.40;;;5.70;;
65936;SDS011;52707;52.086;5.418;2023-05-10T13:33:04;8.98;;;4.85;;
65936;SDS011;52707;52.086;5.418;2023-05-10T13:35:31;8.95;;;5.45;;
65936;SDS011;52707;52.086;5.418;2023-05-10T13:37:57;8.43;;;5.55;;
65936;SDS011;52707;52.086;5.418;2023-05-10T13:40:24;9.82;;;5.47;;
65936;SDS011;52707;52.086;5.418;2023-05-10T13:42:50;13.80;;;4.85;;
65936;SDS011;52707;52.086;5.418;2023-05-10T13:45:16;13.57;;;5.00;;
65936;SDS011;52707;52.086;5.418;2023-05-10T13:47:43;8.98;;;5.50;;
65936;SDS011;52707;52.086;5.418;2023-05-10T13:50:09;11.63;;;5.47;;
65936;SDS011;52707;52.086;5.418;2023-05-10T13:52:36;10.75;;;6.20;;
65936;SDS011;52707;52.086;5.418;2023-05-10T13:55:02;14.77;;;5.70;;
65936;SDS011;52707;52.086;5.418;2023-05-10T13:57:28;7.57;;;5.32;;
65936;SDS011;52707;52.086;5.418;2023-05-10T13:59:56;9.85;;;5.55;;
65936;SDS011;52707;52.086;5.418;2023-05-10T14:02:23;8.10;;;5.68;;
65936;SDS011;52707;52.086;5.418;2023-05-10T14:04:50;9.70;;;5.05;;
65936;SDS011;52707;52.086;5.418;2023-05-10T14:07:17;7.57;;;5.47;;
65936;SDS011;52707;52.086;5.418;2023-05-10T14:09:43;7.53;;;5.38;;
65936;SDS011;52707;52.086;5.418;2023-05-10T14:12:10;10.20;;;5.97;;
65936;SDS011;52707;52.086;5.418;2023-05-10T14:14:36;9.38;;;6.38;;
65936;SDS011;52707;52.086;5.418;2023-05-10T14:17:02;12.82;;;7.10;;
65936;SDS011;52707;52.086;5.418;2023-05-10T14:19:29;16.42;;;7.88;;
65936;SDS011;52707;52.086;5.418;2023-05-10T14:21:58;15.52;;;8.05;;
65936;SDS011;52707;52.086;5.418;2023-05-10T14:24:24;10.38;;;6.80;;
65936;SDS011;52707;52.086;5.418;2023-05-10T14:26:51;15.35;;;8.43;;
65936;SDS011;52707;52.086;5.418;2023-05-10T14:29:20;13.63;;;7.88;;
65936;SDS011;52707;52.086;5.418;2023-05-10T14:31:46;15.45;;;7.93;;
65936;SDS011;52707;52.086;5.418;2023-05-10T14:34:12;15.25;;;8.65;;
65936;SDS011;52707;52.086;5.418;2023-05-10T14:36:39;23.40;;;8.80;;
65936;SDS011;52707;52.086;5.418;2023-05-10T14:39:06;16.13;;;8.18;;
65936;SDS011;52707;52.086;5.418;2023-05-10T14:41:32;19.65;;;9.18;;
65936;SDS011;52707;52.086;5.418;2023-05-10T14:43:59;16.77;;;9.88;;
65936;SDS011;52707;52.086;5.418;2023-05-10T14:46:25;15.55;;;8.93;;
65936;SDS011;52707;52.086;5.418;2023-05-10T14:48:51;17.02;;;9.15;;
65936;SDS011;52707;52.086;5.418;2023-05-10T14:51:18;17.33;;;9.43;;
65936;SDS011;52707;52.086;5.418;2023-05-10T14:53:50;16.23;;;9.70;;
65936;SDS011;52707;52.086;5.418;2023-05-10T14:56:16;19.15;;;9.52;;
65936;SDS011;52707;52.086;5.418;2023-05-10T14:58:42;14.98;;;9.02;;
65936;SDS011;52707;52.086;5.418;2023-05-10T15:01:09;18.00;;;9.18;;
65936;SDS011;52707;52.086;5.418;2023-05-10T15:03:36;19.30;;;9.02;;
65936;SDS011;52707;52.086;5.418;2023-05-10T15:06:04;14.20;;;8.68;;
65936;SDS011;52707;52.086;5.418;2023-05-10T15:08:31;14.70;;;9.02;;
65936;SDS011;52707;52.086;5.418;2023-05-10T15:10:57;16.50;;;8.55;;
65936;SDS011;52707;52.086;5.418;2023-05-10T15:13:23;14.05;;;8.77;;